sensor_id;sensor_type;location;lat;lon;timestamp;temperature;humidity
51867;DHT22;52862;52.504;13.480;2024-02-21T00:00:52;8.60;99.90
51867;DHT22;52862;52.504;13.480;2024-02-21T00:03:19;8.60;99.90
51867;DHT22;52862;52.504;13.480;2024-02-21T00:05:46;8.70;99.90
51867;DHT22;52862;52.504;13.480;2024-02-21T00:08:13;8.60;99.90
51867;DHT22;52862;52.504;13.480;2024-02-21T00:10:41;8.60;99.90
51867;DHT22;52862;52.504;13.480;2024-02-21T00:13:08;8.60;99.90
51867;DHT22;52862;52.504;13.480;2024-02-21T00:15:35;8.60;99.90
51867;DHT22;52862;52.504;13.480;2024-02-21T00:18:02;8.10;99.90
51867;DHT22;52862;52.504;13.480;2024-02-21T00:20:29;8.60;99.90
51867;DHT22;52862;52.504;13.480;2024-02-21T00:22:56;8.60;99.90
51867;DHT22;52862;52.504;13.480;2024-02-21T00:25:23;8.60;99.90
51867;DHT22;52862;52.504;13.480;2024-02-21T00:27:50;8.60;99.90
51867;DHT22;52862;52.504;13.480;2024-02-21T00:30:17;8.70;99.90
51867;DHT22;52862;52.504;13.480;2024-02-21T00:32:44;8.70;99.90
51867;DHT22;52862;52.504;13.480;2024-02-21T00:35:10;9.00;99.90
51867;DHT22;52862;52.504;13.480;2024-02-21T00:37:38;8.60;99.90
51867;DHT22;52862;52.504;13.480;2024-02-21T00:40:06;8.60;99.90
51867;DHT22;52862;52.504;13.480;2024-02-21T00:42:33;8.60;99.90
51867;DHT22;52862;52.504;13.480;2024-02-21T00:45:00;8.60;99.90
51867;DHT22;52862;52.504;13.480;2024-02-21T00:47:27;8.60;99.90
51867;DHT22;52862;52.504;13.480;2024-02-21T00:49:54;8.60;99.90
51867;DHT22;52862;52.504;13.480;2024-02-21T00:52:21;8.60;99.90
51867;DHT22;52862;52.504;13.480;2024-02-21T00:54:48;8.60;99.90
51867;DHT22;52862;52.504;13.480;2024-02-21T00:57:20;8.50;99.90
51867;DHT22;52862;52.504;13.480;2024-02-21T00:59:47;8.50;99.90
51867;DHT22;52862;52.504;13.480;2024-02-21T01:02:15;8.10;99.90
51867;DHT22;52862;52.504;13.480;2024-02-21T01:04:42;8.60;99.90
51867;DHT22;52862;52.504;13.480;2024-02-21T01:07:08;8.60;99.90
51867;DHT22;52862;52.504;13.480;2024-02-21T01:09:35;8.70;99.90
51867;DHT22;52862;52.504;13.480;2024-02-21T01:12:02;8.70;99.90
51867;DHT22;52862;52.504;13.480;2024-02-21T01:14:29;8.60;99.90
51867;DHT22;52862;52.504;13.480;2024-02-21T01:16:56;8.60;99.90
51867;DHT22;52862;52.504;13.480;2024-02-21T01:19:24;8.60;99.90
51867;DHT22;52862;52.504;13.480;2024-02-21T01:21:51;8.60;99.90
51867;DHT22;52862;52.504;13.480;2024-02-21T01:24:18;8.70;99.90
51867;DHT22;52862;52.504;13.480;2024-02-21T01:26:44;8.60;99.90
51867;DHT22;52862;52.504;13.480;2024-02-21T01:29:12;8.60;99.90
51867;DHT22;52862;52.504;13.480;2024-02-21T01:31:39;8.40;99.90
51867;DHT22;52862;52.504;13.480;2024-02-21T01:34:06;8.70;99.90
51867;DHT22;52862;52.504;13.480;2024-02-21T01:36:34;8.60;99.90
51867;DHT22;52862;52.504;13.480;2024-02-21T01:39:00;8.60;99.90
51867;DHT22;52862;52.504;13.480;2024-02-21T01:41:29;8.30;99.90
51867;DHT22;52862;52.504;13.480;2024-02-21T01:43:56;8.60;99.90
51867;DHT22;52862;52.504;13.480;2024-02-21T01:46:23;8.60;99.90
51867;DHT22;52862;52.504;13.480;2024-02-21T01:48:54;8.80;99.90
51867;DHT22;52862;52.504;13.480;2024-02-21T01:51:21;8.70;99.90
51867;DHT22;52862;52.504;13.480;2024-02-21T01:53:50;8.70;99.90
51867;DHT22;52862;52.504;13.480;2024-02-21T01:56:17;8.20;99.90
51867;DHT22;52862;52.504;13.480;2024-02-21T01:58:44;8.60;99.90
51867;DHT22;52862;52.504;13.480;2024-02-21T02:01:12;8.60;99.90
51867;DHT22;52862;52.504;13.480;2024-02-21T02:03:42;8.20;99.90
51867;DHT22;52862;52.504;13.480;2024-02-21T02:06:08;8.60;99.90
51867;DHT22;52862;52.504;13.480;2024-02-21T02:08:35;8.70;99.90
51867;DHT22;52862;52.504;13.480;2024-02-21T02:11:03;8.60;99.90
51867;DHT22;52862;52.504;13.480;2024-02-21T02:13:31;8.60;99.90
51867;DHT22;52862;52.504;13.480;2024-02-21T02:15:57;8.60;99.90
51867;DHT22;52862;52.504;13.480;2024-02-21T02:18:24;8.70;99.90
51867;DHT22;52862;52.504;13.480;2024-02-21T02:20:51;8.60;99.90
51867;DHT22;52862;52.504;13.480;2024-02-21T02:23:23;8.60;99.90
51867;DHT22;52862;52.504;13.480;2024-02-21T02:25:50;8.70;99.90
51867;DHT22;52862;52.504;13.480;2024-02-21T02:28:19;8.60;99.90
51867;DHT22;52862;52.504;13.480;2024-02-21T02:30:46;8.50;99.90
51867;DHT22;52862;52.504;13.480;2024-02-21T02:33:13;8.50;99.90
51867;DHT22;52862;52.504;13.480;2024-02-21T02:35:40;8.40;99.90
51867;DHT22;52862;52.504;13.480;2024-02-21T02:38:07;8.40;99.90
51867;DHT22;52862;52.504;13.480;2024-02-21T02:40:35;8.30;99.90
51867;DHT22;52862;52.504;13.480;2024-02-21T02:43:02;8.30;99.90
51867;DHT22;52862;52.504;13.480;2024-02-21T02:45:29;8.30;99.90
51867;DHT22;52862;52.504;13.480;2024-02-21T02:47:56;8.40;99.90
51867;DHT22;52862;52.504;13.480;2024-02-21T02:50:24;8.20;99.90
51867;DHT22;52862;52.504;13.480;2024-02-21T02:52:51;8.20;99.90
51867;DHT22;52862;52.504;13.480;2024-02-21T02:55:18;8.10;99.90
51867;DHT22;52862;52.504;13.480;2024-02-21T02:57:46;8.10;99.90
51867;DHT22;52862;52.504;13.480;2024-02-21T03:00:14;8.10;99.90
51867;DHT22;52862;52.504;13.480;2024-02-21T03:02:43;8.20;99.90
51867;DHT22;52862;52.504;13.480;2024-02-21T03:05:14;8.10;99.90
51867;DHT22;52862;52.504;13.480;2024-02-21T03:07:43;8.10;99.90
51867;DHT22;52862;52.504;13.480;2024-02-21T03:10:10;8.10;99.90
51867;DHT22;52862;52.504;13.480;2024-02-21T03:12:38;8.10;99.90
51867;DHT22;52862;52.504;13.480;2024-02-21T03:15:06;8.30;99.90
51867;DHT22;52862;52.504;13.480;2024-02-21T03:17:34;8.10;99.90
51867;DHT22;52862;52.504;13.480;2024-02-21T03:20:01;8.00;99.90
51867;DHT22;52862;52.504;13.480;2024-02-21T03:22:31;8.00;99.90
51867;DHT22;52862;52.504;13.480;2024-02-21T03:24:59;8.00;99.90
51867;DHT22;52862;52.504;13.480;2024-02-21T03:27:25;8.20;99.90
51867;DHT22;52862;52.504;13.480;2024-02-21T03:29:52;8.00;99.90
51867;DHT22;52862;52.504;13.480;2024-02-21T03:32:19;8.10;99.90
51867;DHT22;52862;52.504;13.480;2024-02-21T03:34:46;8.10;99.90
51867;DHT22;52862;52.504;13.480;2024-02-21T03:37:14;8.00;99.90
51867;DHT22;52862;52.504;13.480;2024-02-21T03:39:41;7.90;99.90
51867;DHT22;52862;52.504;13.480;2024-02-21T03:42:08;8.00;99.90
51867;DHT22;52862;52.504;13.480;2024-02-21T03:44:36;8.80;99.90
51867;DHT22;52862;52.504;13.480;2024-02-21T03:47:02;8.00;99.90
51867;DHT22;52862;52.504;13.480;2024-02-21T03:49:30;7.90;99.90
51867;DHT22;52862;52.504;13.480;2024-02-21T03:51:57;7.80;99.90
51867;DHT22;52862;52.504;13.480;2024-02-21T03:54:23;7.80;99.90
51867;DHT22;52862;52.504;13.480;2024-02-21T03:56:50;8.00;99.90
51867;DHT22;52862;52.504;13.480;2024-02-21T03:59:17;7.80;99.90
51867;DHT22;52862;52.504;13.480;2024-02-21T04:01:44;7.80;99.90
51867;DHT22;52862;52.504;13.480;2024-02-21T04:04:11;9.00;99.90
51867;DHT22;52862;52.504;13.480;2024-02-21T04:06:46;7.60;99.90
51867;DHT22;52862;52.504;13.480;2024-02-21T04:09:13;7.90;99.90
51867;DHT22;52862;52.504;13.480;2024-02-21T04:11:40;7.70;99.90
51867;DHT22;52862;52.504;13.480;2024-02-21T04:14:07;8.00;99.90
51867;DHT22;52862;52.504;13.480;2024-02-21T04:16:34;7.70;99.90
51867;DHT22;52862;52.504;13.480;2024-02-21T04:19:01;7.80;99.90
51867;DHT22;52862;52.504;13.480;2024-02-21T04:21:29;7.70;99.90
51867;DHT22;52862;52.504;13.480;2024-02-21T04:23:56;7.90;99.90
51867;DHT22;52862;52.504;13.480;2024-02-21T04:26:23;7.70;99.90
51867;DHT22;52862;52.504;13.480;2024-02-21T04:28:50;7.80;99.90
51867;DHT22;52862;52.504;13.480;2024-02-21T04:31:17;7.80;99.90
51867;DHT22;52862;52.504;13.480;2024-02-21T04:33:44;7.90;99.90
51867;DHT22;52862;52.504;13.480;2024-02-21T04:36:10;7.80;99.90
51867;DHT22;52862;52.504;13.480;2024-02-21T04:38:37;7.70;99.90
51867;DHT22;52862;52.504;13.480;2024-02-21T04:41:06;7.00;99.90
51867;DHT22;52862;52.504;13.480;2024-02-21T04:43:33;7.70;99.90
51867;DHT22;52862;52.504;13.480;2024-02-21T04:46:00;7.80;99.90
51867;DHT22;52862;52.504;13.480;2024-02-21T04:48:26;7.60;99.90
51867;DHT22;52862;52.504;13.480;2024-02-21T04:50:54;7.90;99.90
51867;DHT22;52862;52.504;13.480;2024-02-21T04:53:21;7.70;99.90
51867;DHT22;52862;52.504;13.480;2024-02-21T04:55:47;7.80;99.90
51867;DHT22;52862;52.504;13.480;2024-02-21T04:58:15;7.80;99.90
51867;DHT22;52862;52.504;13.480;2024-02-21T05:00:42;7.80;99.90
51867;DHT22;52862;52.504;13.480;2024-02-21T05:03:09;7.80;99.90
51867;DHT22;52862;52.504;13.480;2024-02-21T05:05:36;7.80;99.90
51867;DHT22;52862;52.504;13.480;2024-02-21T05:08:04;7.90;99.90
51867;DHT22;52862;52.504;13.480;2024-02-21T05:10:31;7.80;99.90
51867;DHT22;52862;52.504;13.480;2024-02-21T05:12:58;7.80;99.90
51867;DHT22;52862;52.504;13.480;2024-02-21T05:15:26;7.90;99.90
51867;DHT22;52862;52.504;13.480;2024-02-21T05:17:52;7.80;99.90
51867;DHT22;52862;52.504;13.480;2024-02-21T05:20:19;8.00;99.90
51867;DHT22;52862;52.504;13.480;2024-02-21T05:22:47;8.00;99.90
51867;DHT22;52862;52.504;13.480;2024-02-21T05:25:14;7.80;99.90
51867;DHT22;52862;52.504;13.480;2024-02-21T05:27:41;7.90;99.90
51867;DHT22;52862;52.504;13.480;2024-02-21T05:30:08;7.80;99.90
51867;DHT22;52862;52.504;13.480;2024-02-21T05:32:36;7.90;99.90
51867;DHT22;52862;52.504;13.480;2024-02-21T05:35:04;7.80;99.90
51867;DHT22;52862;52.504;13.480;2024-02-21T05:37:31;7.80;99.90
51867;DHT22;52862;52.504;13.480;2024-02-21T05:39:57;7.90;99.90
51867;DHT22;52862;52.504;13.480;2024-02-21T05:42:24;7.90;99.90
51867;DHT22;52862;52.504;13.480;2024-02-21T05:44:51;7.90;99.90
51867;DHT22;52862;52.504;13.480;2024-02-21T05:47:18;7.90;99.90
51867;DHT22;52862;52.504;13.480;2024-02-21T05:49:47;8.10;99.90
51867;DHT22;52862;52.504;13.480;2024-02-21T05:52:14;7.80;99.90
51867;DHT22;52862;52.504;13.480;2024-02-21T05:54:41;8.00;99.90
51867;DHT22;52862;52.504;13.480;2024-02-21T05:57:08;8.00;99.90
51867;DHT22;52862;52.504;13.480;2024-02-21T05:59:37;8.20;99.90
51867;DHT22;52862;52.504;13.480;2024-02-21T06:02:06;7.90;99.90
51867;DHT22;52862;52.504;13.480;2024-02-21T06:04:33;8.00;99.90
51867;DHT22;52862;52.504;13.480;2024-02-21T06:07:00;10.40;99.90
51867;DHT22;52862;52.504;13.480;2024-02-21T06:09:27;8.20;99.90
51867;DHT22;52862;52.504;13.480;2024-02-21T06:11:54;8.00;99.90
51867;DHT22;52862;52.504;13.480;2024-02-21T06:14:21;7.90;99.90
51867;DHT22;52862;52.504;13.480;2024-02-21T06:16:48;7.90;99.90
51867;DHT22;52862;52.504;13.480;2024-02-21T06:19:15;8.00;99.90
51867;DHT22;52862;52.504;13.480;2024-02-21T06:21:42;8.00;99.90
51867;DHT22;52862;52.504;13.480;2024-02-21T06:24:09;8.00;99.90
51867;DHT22;52862;52.504;13.480;2024-02-21T06:26:36;7.90;99.90
51867;DHT22;52862;52.504;13.480;2024-02-21T06:29:03;7.90;99.90
51867;DHT22;52862;52.504;13.480;2024-02-21T06:31:30;7.90;99.90
51867;DHT22;52862;52.504;13.480;2024-02-21T06:33:58;7.90;99.90
51867;DHT22;52862;52.504;13.480;2024-02-21T06:36:24;8.00;99.90
51867;DHT22;52862;52.504;13.480;2024-02-21T06:38:51;8.10;99.90
51867;DHT22;52862;52.504;13.480;2024-02-21T06:41:19;7.90;99.90
51867;DHT22;52862;52.504;13.480;2024-02-21T06:43:46;8.10;99.90
51867;DHT22;52862;52.504;13.480;2024-02-21T06:46:23;8.10;99.90
51867;DHT22;52862;52.504;13.480;2024-02-21T06:48:50;8.00;99.90
51867;DHT22;52862;52.504;13.480;2024-02-21T06:51:17;11.00;99.90
51867;DHT22;52862;52.504;13.480;2024-02-21T06:53:43;7.90;99.90
51867;DHT22;52862;52.504;13.480;2024-02-21T06:56:10;8.20;99.90
51867;DHT22;52862;52.504;13.480;2024-02-21T06:58:38;8.20;99.90
51867;DHT22;52862;52.504;13.480;2024-02-21T07:01:05;8.00;99.90
51867;DHT22;52862;52.504;13.480;2024-02-21T07:03:32;8.10;99.90
51867;DHT22;52862;52.504;13.480;2024-02-21T07:05:58;8.20;99.90
51867;DHT22;52862;52.504;13.480;2024-02-21T07:08:26;8.10;99.90
51867;DHT22;52862;52.504;13.480;2024-02-21T07:10:52;8.00;99.90
51867;DHT22;52862;52.504;13.480;2024-02-21T07:13:19;8.10;99.90
51867;DHT22;52862;52.504;13.480;2024-02-21T07:15:48;8.20;99.90
51867;DHT22;52862;52.504;13.480;2024-02-21T07:18:16;8.20;99.90
51867;DHT22;52862;52.504;13.480;2024-02-21T07:20:43;8.40;99.90
51867;DHT22;52862;52.504;13.480;2024-02-21T07:23:10;8.10;99.90
51867;DHT22;52862;52.504;13.480;2024-02-21T07:25:37;8.30;99.90
51867;DHT22;52862;52.504;13.480;2024-02-21T07:28:04;8.30;99.90
51867;DHT22;52862;52.504;13.480;2024-02-21T07:30:31;7.40;99.90
51867;DHT22;52862;52.504;13.480;2024-02-21T07:32:58;8.20;99.90
51867;DHT22;52862;52.504;13.480;2024-02-21T07:35:25;8.20;99.90
51867;DHT22;52862;52.504;13.480;2024-02-21T07:37:52;8.20;99.90
51867;DHT22;52862;52.504;13.480;2024-02-21T07:40:19;8.30;99.90
51867;DHT22;52862;52.504;13.480;2024-02-21T07:42:46;8.30;99.90
51867;DHT22;52862;52.504;13.480;2024-02-21T07:45:17;8.20;99.90
51867;DHT22;52862;52.504;13.480;2024-02-21T07:47:44;8.30;99.90
51867;DHT22;52862;52.504;13.480;2024-02-21T07:50:12;8.30;99.90
51867;DHT22;52862;52.504;13.480;2024-02-21T07:52:39;8.30;99.90
51867;DHT22;52862;52.504;13.480;2024-02-21T07:55:06;8.30;99.90
51867;DHT22;52862;52.504;13.480;2024-02-21T07:57:33;8.30;99.90
51867;DHT22;52862;52.504;13.480;2024-02-21T08:00:00;8.30;99.90
51867;DHT22;52862;52.504;13.480;2024-02-21T08:02:27;8.40;99.90
51867;DHT22;52862;52.504;13.480;2024-02-21T08:04:54;8.40;99.90
51867;DHT22;52862;52.504;13.480;2024-02-21T08:07:22;8.20;99.90
51867;DHT22;52862;52.504;13.480;2024-02-21T08:09:49;8.30;99.90
51867;DHT22;52862;52.504;13.480;2024-02-21T08:12:16;8.10;99.90
51867;DHT22;52862;52.504;13.480;2024-02-21T08:14:43;8.40;99.90
51867;DHT22;52862;52.504;13.480;2024-02-21T08:17:10;8.60;99.90
51867;DHT22;52862;52.504;13.480;2024-02-21T08:19:36;8.40;99.90
51867;DHT22;52862;52.504;13.480;2024-02-21T08:22:03;8.50;99.90
51867;DHT22;52862;52.504;13.480;2024-02-21T08:24:31;8.00;99.90
51867;DHT22;52862;52.504;13.480;2024-02-21T08:26:58;8.60;99.90
51867;DHT22;52862;52.504;13.480;2024-02-21T08:29:25;8.60;99.90
51867;DHT22;52862;52.504;13.480;2024-02-21T08:31:53;8.10;99.90
51867;DHT22;52862;52.504;13.480;2024-02-21T08:34:20;8.50;99.90
51867;DHT22;52862;52.504;13.480;2024-02-21T08:36:47;8.40;99.90
51867;DHT22;52862;52.504;13.480;2024-02-21T08:39:14;8.60;99.90
51867;DHT22;52862;52.504;13.480;2024-02-21T08:41:43;8.60;99.90
51867;DHT22;52862;52.504;13.480;2024-02-21T08:44:23;9.20;99.90
51867;DHT22;52862;52.504;13.480;2024-02-21T08:46:52;8.80;99.90
51867;DHT22;52862;52.504;13.480;2024-02-21T08:49:18;8.70;99.90
51867;DHT22;52862;52.504;13.480;2024-02-21T08:51:45;8.80;99.90
51867;DHT22;52862;52.504;13.480;2024-02-21T08:54:12;8.90;99.90
51867;DHT22;52862;52.504;13.480;2024-02-21T08:56:39;8.80;99.90
51867;DHT22;52862;52.504;13.480;2024-02-21T08:59:07;8.90;99.90
51867;DHT22;52862;52.504;13.480;2024-02-21T09:01:33;8.90;99.90
51867;DHT22;52862;52.504;13.480;2024-02-21T09:04:01;9.00;99.90
51867;DHT22;52862;52.504;13.480;2024-02-21T09:06:29;9.00;99.90
51867;DHT22;52862;52.504;13.480;2024-02-21T09:08:56;9.10;99.90
51867;DHT22;52862;52.504;13.480;2024-02-21T09:11:23;9.20;99.90
51867;DHT22;52862;52.504;13.480;2024-02-21T09:13:50;9.10;99.90
51867;DHT22;52862;52.504;13.480;2024-02-21T09:16:18;9.10;99.90
51867;DHT22;52862;52.504;13.480;2024-02-21T09:18:45;9.20;99.90
51867;DHT22;52862;52.504;13.480;2024-02-21T09:21:12;9.10;99.90
51867;DHT22;52862;52.504;13.480;2024-02-21T09:23:39;9.20;99.90
51867;DHT22;52862;52.504;13.480;2024-02-21T09:26:06;9.20;99.90
51867;DHT22;52862;52.504;13.480;2024-02-21T09:28:34;9.20;99.90
51867;DHT22;52862;52.504;13.480;2024-02-21T09:31:06;9.30;99.90
51867;DHT22;52862;52.504;13.480;2024-02-21T09:33:33;9.40;99.90
51867;DHT22;52862;52.504;13.480;2024-02-21T09:36:00;9.40;99.90
51867;DHT22;52862;52.504;13.480;2024-02-21T09:38:27;9.60;99.90
51867;DHT22;52862;52.504;13.480;2024-02-21T09:40:59;9.60;99.90
51867;DHT22;52862;52.504;13.480;2024-02-21T09:43:27;9.60;99.90
51867;DHT22;52862;52.504;13.480;2024-02-21T09:45:55;9.20;99.90
51867;DHT22;52862;52.504;13.480;2024-02-21T09:48:34;9.60;99.90
51867;DHT22;52862;52.504;13.480;2024-02-21T09:51:06;9.70;99.90
51867;DHT22;52862;52.504;13.480;2024-02-21T09:53:34;9.70;99.90
51867;DHT22;52862;52.504;13.480;2024-02-21T09:56:05;9.90;99.90
51867;DHT22;52862;52.504;13.480;2024-02-21T09:58:36;9.80;99.90
51867;DHT22;52862;52.504;13.480;2024-02-21T10:01:03;10.00;99.90
51867;DHT22;52862;52.504;13.480;2024-02-21T10:03:47;10.10;99.90
51867;DHT22;52862;52.504;13.480;2024-02-21T10:06:14;10.10;99.90
51867;DHT22;52862;52.504;13.480;2024-02-21T10:08:41;10.20;99.90
51867;DHT22;52862;52.504;13.480;2024-02-21T10:11:08;10.10;99.90
51867;DHT22;52862;52.504;13.480;2024-02-21T10:13:35;10.10;99.90
51867;DHT22;52862;52.504;13.480;2024-02-21T10:16:05;10.20;99.90
51867;DHT22;52862;52.504;13.480;2024-02-21T10:18:32;10.10;99.90
51867;DHT22;52862;52.504;13.480;2024-02-21T10:21:01;10.20;99.90
51867;DHT22;52862;52.504;13.480;2024-02-21T10:23:29;10.20;99.90
51867;DHT22;52862;52.504;13.480;2024-02-21T10:26:07;10.20;99.90
51867;DHT22;52862;52.504;13.480;2024-02-21T10:28:34;10.20;99.90
51867;DHT22;52862;52.504;13.480;2024-02-21T10:31:01;10.20;99.90
51867;DHT22;52862;52.504;13.480;2024-02-21T10:33:28;10.40;99.90
51867;DHT22;52862;52.504;13.480;2024-02-21T10:36:07;10.50;99.90
51867;DHT22;52862;52.504;13.480;2024-02-21T10:38:39;11.40;99.90
51867;DHT22;52862;52.504;13.480;2024-02-21T10:41:06;10.60;99.90
51867;DHT22;52862;52.504;13.480;2024-02-21T10:43:38;10.40;99.90
51867;DHT22;52862;52.504;13.480;2024-02-21T10:46:07;10.10;99.90
51867;DHT22;52862;52.504;13.480;2024-02-21T10:48:42;9.80;99.90
51867;DHT22;52862;52.504;13.480;2024-02-21T10:51:15;10.40;99.90
51867;DHT22;52862;52.504;13.480;2024-02-21T10:53:45;10.40;99.90
51867;DHT22;52862;52.504;13.480;2024-02-21T10:56:22;10.40;99.90
51867;DHT22;52862;52.504;13.480;2024-02-21T10:58:52;10.40;99.90
51867;DHT22;52862;52.504;13.480;2024-02-21T11:01:19;10.40;99.90
51867;DHT22;52862;52.504;13.480;2024-02-21T11:03:48;10.40;99.90
51867;DHT22;52862;52.504;13.480;2024-02-21T11:06:18;10.10;99.90
51867;DHT22;52862;52.504;13.480;2024-02-21T11:08:45;10.50;99.90
51867;DHT22;52862;52.504;13.480;2024-02-21T11:11:13;10.30;99.90
51867;DHT22;52862;52.504;13.480;2024-02-21T11:14:07;10.20;99.90
51867;DHT22;52862;52.504;13.480;2024-02-21T11:16:38;10.30;99.90
51867;DHT22;52862;52.504;13.480;2024-02-21T11:19:07;10.40;99.90
51867;DHT22;52862;52.504;13.480;2024-02-21T11:21:35;10.30;99.90
51867;DHT22;52862;52.504;13.480;2024-02-21T11:24:02;10.50;99.90
51867;DHT22;52862;52.504;13.480;2024-02-21T11:26:30;10.80;99.90
51867;DHT22;52862;52.504;13.480;2024-02-21T11:28:58;11.10;99.90
51867;DHT22;52862;52.504;13.480;2024-02-21T11:31:25;10.90;99.90
51867;DHT22;52862;52.504;13.480;2024-02-21T11:33:53;10.90;99.90
51867;DHT22;52862;52.504;13.480;2024-02-21T11:36:24;11.00;99.90
51867;DHT22;52862;52.504;13.480;2024-02-21T11:38:52;11.00;99.90
51867;DHT22;52862;52.504;13.480;2024-02-21T11:41:19;11.00;99.90
51867;DHT22;52862;52.504;13.480;2024-02-21T11:43:48;11.10;99.90
51867;DHT22;52862;52.504;13.480;2024-02-21T11:46:15;11.40;99.90
51867;DHT22;52862;52.504;13.480;2024-02-21T11:48:41;11.40;99.90
51867;DHT22;52862;52.504;13.480;2024-02-21T11:51:10;9.50;99.90
51867;DHT22;52862;52.504;13.480;2024-02-21T11:53:37;11.40;99.90
51867;DHT22;52862;52.504;13.480;2024-02-21T11:56:17;11.30;99.90
51867;DHT22;52862;52.504;13.480;2024-02-21T11:58:44;11.40;99.90
51867;DHT22;52862;52.504;13.480;2024-02-21T12:01:12;11.70;99.90
51867;DHT22;52862;52.504;13.480;2024-02-21T12:03:39;11.60;99.90
51867;DHT22;52862;52.504;13.480;2024-02-21T12:06:07;11.60;99.90
51867;DHT22;52862;52.504;13.480;2024-02-21T12:08:43;11.70;99.90
51867;DHT22;52862;52.504;13.480;2024-02-21T12:11:22;12.00;99.90
51867;DHT22;52862;52.504;13.480;2024-02-21T12:13:58;12.20;99.90
51867;DHT22;52862;52.504;13.480;2024-02-21T12:16:27;12.20;99.90
51867;DHT22;52862;52.504;13.480;2024-02-21T12:18:54;12.20;99.90
51867;DHT22;52862;52.504;13.480;2024-02-21T12:21:24;12.30;99.90
51867;DHT22;52862;52.504;13.480;2024-02-21T12:23:51;12.30;99.90
51867;DHT22;52862;52.504;13.480;2024-02-21T12:26:18;12.10;99.90
51867;DHT22;52862;52.504;13.480;2024-02-21T12:28:47;12.50;99.90
51867;DHT22;52862;52.504;13.480;2024-02-21T12:31:14;12.20;99.90
51867;DHT22;52862;52.504;13.480;2024-02-21T12:33:42;12.20;99.90
51867;DHT22;52862;52.504;13.480;2024-02-21T12:36:09;12.30;99.90
51867;DHT22;52862;52.504;13.480;2024-02-21T12:38:36;12.50;99.90
51867;DHT22;52862;52.504;13.480;2024-02-21T12:41:03;12.70;99.90
51867;DHT22;52862;52.504;13.480;2024-02-21T12:43:31;12.90;99.90
51867;DHT22;52862;52.504;13.480;2024-02-21T12:45:59;12.60;99.90
51867;DHT22;52862;52.504;13.480;2024-02-21T12:48:26;12.50;99.90
51867;DHT22;52862;52.504;13.480;2024-02-21T12:50:53;12.30;99.90
51867;DHT22;52862;52.504;13.480;2024-02-21T12:53:19;12.50;99.90
51867;DHT22;52862;52.504;13.480;2024-02-21T12:55:58;12.50;99.90
51867;DHT22;52862;52.504;13.480;2024-02-21T12:58:25;12.50;99.90
51867;DHT22;52862;52.504;13.480;2024-02-21T13:00:52;12.50;99.90
51867;DHT22;52862;52.504;13.480;2024-02-21T13:03:20;15.40;99.90
51867;DHT22;52862;52.504;13.480;2024-02-21T13:05:47;16.90;99.90
51867;DHT22;52862;52.504;13.480;2024-02-21T13:08:14;15.80;99.90
51867;DHT22;52862;52.504;13.480;2024-02-21T13:10:41;14.00;99.90
51867;DHT22;52862;52.504;13.480;2024-02-21T13:13:08;13.20;99.90
51867;DHT22;52862;52.504;13.480;2024-02-21T13:15:35;12.70;99.90
51867;DHT22;52862;52.504;13.480;2024-02-21T13:18:03;12.90;99.90
51867;DHT22;52862;52.504;13.480;2024-02-21T13:20:31;12.60;99.90
51867;DHT22;52862;52.504;13.480;2024-02-21T13:22:58;12.50;99.90
51867;DHT22;52862;52.504;13.480;2024-02-21T13:25:25;12.50;99.90
51867;DHT22;52862;52.504;13.480;2024-02-21T13:27:52;12.40;99.90
51867;DHT22;52862;52.504;13.480;2024-02-21T13:30:22;12.00;99.90
51867;DHT22;52862;52.504;13.480;2024-02-21T13:32:49;12.50;99.90
51867;DHT22;52862;52.504;13.480;2024-02-21T13:35:16;12.30;99.90
51867;DHT22;52862;52.504;13.480;2024-02-21T13:37:43;12.00;99.90
51867;DHT22;52862;52.504;13.480;2024-02-21T13:40:10;12.00;99.90
51867;DHT22;52862;52.504;13.480;2024-02-21T13:42:37;11.90;99.90
51867;DHT22;52862;52.504;13.480;2024-02-21T13:45:05;11.90;99.90
51867;DHT22;52862;52.504;13.480;2024-02-21T13:47:33;11.80;99.90
51867;DHT22;52862;52.504;13.480;2024-02-21T13:50:00;11.60;99.90
51867;DHT22;52862;52.504;13.480;2024-02-21T13:52:27;11.50;99.90
51867;DHT22;52862;52.504;13.480;2024-02-21T13:54:54;10.90;99.90
51867;DHT22;52862;52.504;13.480;2024-02-21T13:57:21;11.60;99.90
51867;DHT22;52862;52.504;13.480;2024-02-21T13:59:49;11.60;99.90
51867;DHT22;52862;52.504;13.480;2024-02-21T14:02:17;11.60;99.90
51867;DHT22;52862;52.504;13.480;2024-02-21T14:04:43;11.50;99.90
51867;DHT22;52862;52.504;13.480;2024-02-21T14:07:10;11.50;99.90
51867;DHT22;52862;52.504;13.480;2024-02-21T14:09:37;11.60;99.90
51867;DHT22;52862;52.504;13.480;2024-02-21T14:12:06;11.60;99.90
51867;DHT22;52862;52.504;13.480;2024-02-21T14:14:34;11.50;99.90
51867;DHT22;52862;52.504;13.480;2024-02-21T14:17:04;12.00;99.90
51867;DHT22;52862;52.504;13.480;2024-02-21T14:19:31;11.70;99.90
51867;DHT22;52862;52.504;13.480;2024-02-21T14:21:58;11.70;99.90
51867;DHT22;52862;52.504;13.480;2024-02-21T14:24:25;11.70;99.90
51867;DHT22;52862;52.504;13.480;2024-02-21T14:26:53;11.80;99.90
51867;DHT22;52862;52.504;13.480;2024-02-21T14:29:21;11.90;99.90
51867;DHT22;52862;52.504;13.480;2024-02-21T14:31:48;11.80;99.90
51867;DHT22;52862;52.504;13.480;2024-02-21T14:34:15;12.10;99.90
51867;DHT22;52862;52.504;13.480;2024-02-21T14:36:43;12.10;99.90
51867;DHT22;52862;52.504;13.480;2024-02-21T14:39:10;11.90;99.90
51867;DHT22;52862;52.504;13.480;2024-02-21T14:41:36;11.80;99.90
51867;DHT22;52862;52.504;13.480;2024-02-21T14:44:05;11.80;99.90
51867;DHT22;52862;52.504;13.480;2024-02-21T14:46:37;11.80;99.90
51867;DHT22;52862;52.504;13.480;2024-02-21T14:49:04;11.90;99.90
51867;DHT22;52862;52.504;13.480;2024-02-21T14:51:31;11.90;99.90
51867;DHT22;52862;52.504;13.480;2024-02-21T14:53:59;11.80;99.90
51867;DHT22;52862;52.504;13.480;2024-02-21T14:56:26;11.90;99.90
51867;DHT22;52862;52.504;13.480;2024-02-21T14:58:53;12.00;99.90
51867;DHT22;52862;52.504;13.480;2024-02-21T15:01:24;11.90;99.90
51867;DHT22;52862;52.504;13.480;2024-02-21T15:03:51;11.90;99.90
51867;DHT22;52862;52.504;13.480;2024-02-21T15:06:18;11.90;99.90
51867;DHT22;52862;52.504;13.480;2024-02-21T15:08:45;11.80;99.90
51867;DHT22;52862;52.504;13.480;2024-02-21T15:11:12;11.70;99.90
51867;DHT22;52862;52.504;13.480;2024-02-21T15:13:39;11.70;99.90
51867;DHT22;52862;52.504;13.480;2024-02-21T15:16:06;11.70;99.90
51867;DHT22;52862;52.504;13.480;2024-02-21T15:18:33;11.60;99.90
51867;DHT22;52862;52.504;13.480;2024-02-21T15:21:02;11.70;99.90
51867;DHT22;52862;52.504;13.480;2024-02-21T15:23:29;11.80;99.90
51867;DHT22;52862;52.504;13.480;2024-02-21T15:25:56;11.70;99.90
51867;DHT22;52862;52.504;13.480;2024-02-21T15:28:23;11.70;99.90